Time;durP1;ratioP1;P1;durP2;ratioP2;P2;SDS_P1;SDS_P2;PMS_P1;PMS_P2;Temp;Humidity;BMP_temperature;BMP_pressure;BME280_temperature;BME280_humidity;BME280_pressure;Samples;Min_cycle;Max_cycle;Signal;HPM_P1;HPM_P2
2023/10/23 00:01:00;;;;;;;;;;;;;;;16.39;70.13;99738.63;6214316;23;19958;-81
2023/10/23 00:03:25;;;;;;;;;;;;;;;16.42;69.88;99742.06;6214265;23;19908;-80
2023/10/23 00:05:50;;;;;;;;;;;;;;;16.49;69.74;99739.16;6214394;23;20256;-80
2023/10/23 00:08:16;;;;;;;;;;;;;;;16.42;69.66;99730.53;6213623;23;19907;-80
2023/10/23 00:10:42;;;;;;;;;;;;;;;16.37;70.12;99737.81;6212651;23;19966;-81
2023/10/23 00:13:07;;;;;;;;;;;;;;;16.23;70.37;99733.03;6214122;23;19911;-81
2023/10/23 00:15:34;;;;;;;;;;;;;;;16.25;70.38;99732.06;6186244;23;20328;-81
2023/10/23 00:17:59;;;;;;;;;;;;;;;16.27;70.18;99732.00;6213623;23;19965;-81
2023/10/23 00:20:24;;;;;;;;;;;;;;;16.22;70.03;99737.50;6213456;23;19907;-81
2023/10/23 00:22:50;;;;;;;;;;;;;;;16.25;69.61;99732.06;6213795;23;19904;-81
2023/10/23 00:25:15;;;;;;;;;;;;;;;16.08;70.39;99737.13;6212736;23;20606;-81
2023/10/23 00:27:40;;;;;;;;;;;;;;;16.02;70.89;99738.22;6213799;23;19911;-80
2023/10/23 00:30:06;;;;;;;;;;;;;;;15.99;71.47;99737.44;6213023;23;19912;-80
2023/10/23 00:32:31;;;;;;;;;;;;;;;15.98;71.74;99741.91;6213616;23;20235;-82
2023/10/23 00:34:56;;;;;;;;;;;;;;;16.09;71.20;99742.38;6213392;23;19935;-80
2023/10/23 00:37:22;;;;;;;;;;;;;;;16.13;70.69;99742.25;6213264;23;20341;-81
2023/10/23 00:39:47;;;;;;;;;;;;;;;15.96;71.50;99741.13;6186090;23;19961;-80
2023/10/23 00:42:12;;;;;;;;;;;;;;;15.93;71.62;99754.53;6212547;23;19908;-80
2023/10/23 00:44:38;;;;;;;;;;;;;;;15.95;72.21;99749.16;6213900;23;19907;-80
2023/10/23 00:47:03;;;;;;;;;;;;;;;15.94;72.07;99745.59;6211522;23;19958;-80
2023/10/23 00:49:28;;;;;;;;;;;;;;;15.95;71.77;99749.16;6214039;23;19908;-79
2023/10/23 00:51:54;;;;;;;;;;;;;;;15.95;71.75;99750.00;6212908;23;19915;-80
2023/10/23 00:54:20;;;;;;;;;;;;;;;15.88;72.06;99752.03;6213182;23;19918;-80
2023/10/23 00:56:46;;;;;;;;;;;;;;;15.98;71.99;99755.22;6213010;23;19912;-80
2023/10/23 00:59:12;;;;;;;;;;;;;;;16.04;71.30;99762.13;6213026;23;19935;-80
2023/10/23 01:01:37;;;;;;;;;;;;;;;15.90;71.13;99757.28;6186641;23;19908;-80
2023/10/23 01:04:04;;;;;;;;;;;;;;;15.72;72.07;99759.66;6212335;23;19907;-81
2023/10/23 01:06:30;;;;;;;;;;;;;;;15.74;72.47;99756.94;6213630;23;19908;-81
2023/10/23 01:08:55;;;;;;;;;;;;;;;15.76;72.48;99761.28;6185593;23;19961;-81
2023/10/23 01:11:21;;;;;;;;;;;;;;;15.80;72.36;99764.75;6213450;23;19994;-80
2023/10/23 01:13:46;;;;;;;;;;;;;;;15.75;72.32;99764.88;6185995;23;20295;-80
2023/10/23 01:16:11;;;;;;;;;;;;;;;15.75;72.79;99761.31;6186373;23;19908;-80
2023/10/23 01:18:37;;;;;;;;;;;;;;;15.89;72.45;99766.19;6213345;23;19908;-80
2023/10/23 01:21:02;;;;;;;;;;;;;;;15.72;72.71;99754.34;6213373;23;19912;-82
2023/10/23 01:23:31;;;;;;;;;;;;;;;15.77;72.79;99764.84;6212766;23;19908;-81
2023/10/23 01:25:57;;;;;;;;;;;;;;;15.70;73.51;99763.28;6186465;23;20228;-79
2023/10/23 01:28:22;;;;;;;;;;;;;;;15.72;73.95;99761.44;6213590;23;19923;-80
2023/10/23 01:30:47;;;;;;;;;;;;;;;15.73;74.39;99761.38;6212950;23;19908;-80
2023/10/23 01:33:13;;;;;;;;;;;;;;;15.57;76.05;99765.50;6213648;23;19908;-80
2023/10/23 01:35:38;;;;;;;;;;;;;;;15.46;76.83;99770.31;6212855;23;19934;-80
2023/10/23 01:38:03;;;;;;;;;;;;;;;15.35;77.46;99744.09;6213171;23;19908;-80
2023/10/23 01:40:29;;;;;;;;;;;;;;;15.76;75.94;99769.25;6213264;23;20865;-78
2023/10/23 01:42:54;;;;;;;;;;;;;;;15.93;75.52;99763.38;6213059;23;19908;-79
2023/10/23 01:45:19;;;;;;;;;;;;;;;15.88;75.07;99765.34;6213039;23;19908;-79
2023/10/23 01:47:45;;;;;;;;;;;;;;;15.73;76.28;99768.50;6210683;23;19912;-79
2023/10/23 01:50:10;;;;;;;;;;;;;;;15.79;76.12;99770.13;6213542;23;19974;-78
2023/10/23 01:52:35;;;;;;;;;;;;;;;16.03;75.20;99765.69;6212671;23;19914;-79
2023/10/23 01:55:01;;;;;;;;;;;;;;;16.02;75.03;99758.63;6213101;23;19935;-79
2023/10/23 01:57:27;;;;;;;;;;;;;;;16.03;74.32;99769.22;6212505;23;19908;-79
2023/10/23 01:59:52;;;;;;;;;;;;;;;15.96;74.50;99758.84;6213481;23;19999;-79
2023/10/23 02:02:18;;;;;;;;;;;;;;;15.90;73.55;99762.63;6212542;23;20290;-81
2023/10/23 02:04:43;;;;;;;;;;;;;;;15.87;73.26;99760.94;6186648;23;19911;-79
2023/10/23 02:07:08;;;;;;;;;;;;;;;15.86;73.10;99758.31;6212684;23;19908;-79
2023/10/23 02:09:34;;;;;;;;;;;;;;;15.84;73.11;99765.50;6214864;23;20273;-82
2023/10/23 02:12:00;;;;;;;;;;;;;;;15.81;72.63;99762.94;6214780;23;19907;-78
2023/10/23 02:14:26;;;;;;;;;;;;;;;15.53;73.78;99759.41;6214503;23;19907;-79
2023/10/23 02:16:51;;;;;;;;;;;;;;;15.57;74.14;99762.84;6215240;23;20345;-79
2023/10/23 02:19:17;;;;;;;;;;;;;;;15.60;74.50;99764.53;6214064;23;19966;-78
2023/10/23 02:21:49;;;;;;;;;;;;;;;15.67;74.35;99763.41;6215068;23;19939;-79
2023/10/23 02:24:14;;;;;;;;;;;;;;;15.73;73.87;99771.16;6214714;23;20255;-79
2023/10/23 02:26:40;;;;;;;;;;;;;;;15.63;73.96;99778.59;6214468;23;19982;-79
2023/10/23 02:29:05;;;;;;;;;;;;;;;15.44;74.79;99777.47;6214385;23;19908;-83
2023/10/23 02:31:30;;;;;;;;;;;;;;;15.48;74.91;99784.44;6214756;23;19948;-79
2023/10/23 02:33:56;;;;;;;;;;;;;;;15.50;74.53;99782.59;6214691;23;19915;-79
2023/10/23 02:36:21;;;;;;;;;;;;;;;15.65;74.02;99776.75;6214718;23;19912;-80
2023/10/23 02:38:46;;;;;;;;;;;;;;;15.66;74.37;99788.25;6213738;23;19912;-80
2023/10/23 02:41:12;;;;;;;;;;;;;;;15.56;75.12;99780.56;6187657;23;19907;-79
2023/10/23 02:43:37;;;;;;;;;;;;;;;15.68;74.57;99779.28;6213909;23;19938;-80
2023/10/23 02:46:04;;;;;;;;;;;;;;;15.56;74.62;99779.72;6214626;23;19914;-79
2023/10/23 02:48:29;;;;;;;;;;;;;;;15.41;74.38;99786.41;6214852;23;19908;-80
2023/10/23 02:50:55;;;;;;;;;;;;;;;15.41;74.64;99786.41;6214174;23;19919;-80
2023/10/23 02:53:21;;;;;;;;;;;;;;;15.37;75.93;99779.47;6214345;23;20328;-79
2023/10/23 02:55:46;;;;;;;;;;;;;;;15.38;76.92;99774.13;6214216;23;19915;-79
2023/10/23 02:58:11;;;;;;;;;;;;;;;15.55;76.03;99776.19;6213872;23;19904;-80
2023/10/23 03:00:39;;;;;;;;;;;;;;;15.69;75.43;99767.75;6213200;23;19931;-83
2023/10/23 03:03:04;;;;;;;;;;;;;;;15.69;75.05;99772.19;6214868;23;20276;-81
2023/10/23 03:05:29;;;;;;;;;;;;;;;15.86;75.29;99783.13;6213854;23;19904;-81
2023/10/23 03:07:54;;;;;;;;;;;;;;;15.95;75.45;99786.38;6213501;23;19916;-81
2023/10/23 03:10:20;;;;;;;;;;;;;;;16.02;75.24;99774.59;6211966;23;19912;-81
2023/10/23 03:12:45;;;;;;;;;;;;;;;15.87;75.97;99776.03;6213063;23;19915;-80
2023/10/23 03:15:11;;;;;;;;;;;;;;;16.01;75.78;99781.72;6213787;23;19926;-81
2023/10/23 03:17:36;;;;;;;;;;;;;;;16.02;75.72;99785.22;6213232;23;19908;-79
2023/10/23 03:20:03;;;;;;;;;;;;;;;16.21;75.13;99780.97;6213317;23;20002;-79
2023/10/23 03:22:29;;;;;;;;;;;;;;;16.24;74.82;99783.53;6186292;23;19911;-82
2023/10/23 03:24:54;;;;;;;;;;;;;;;16.22;74.74;99779.19;6213382;23;20245;-83
2023/10/23 03:27:19;;;;;;;;;;;;;;;16.14;74.99;99781.25;6213325;23;19908;-81
2023/10/23 03:29:44;;;;;;;;;;;;;;;16.25;74.75;99784.38;6213252;23;19912;-81
2023/10/23 03:32:10;;;;;;;;;;;;;;;16.16;74.29;99780.28;6186742;23;19955;-81
2023/10/23 03:34:35;;;;;;;;;;;;;;;16.06;74.41;99793.03;6212894;23;19912;-81
2023/10/23 03:37:01;;;;;;;;;;;;;;;15.96;73.78;99785.44;6213269;23;19912;-79
2023/10/23 03:39:26;;;;;;;;;;;;;;;15.85;73.79;99789.38;6213089;23;19970;-80
2023/10/23 03:41:51;;;;;;;;;;;;;;;15.83;73.85;99795.66;6213329;23;20315;-82
2023/10/23 03:44:16;;;;;;;;;;;;;;;15.93;73.49;99795.28;6212803;23;19965;-81
2023/10/23 03:46:42;;;;;;;;;;;;;;;15.83;73.51;99793.88;6213598;23;19908;-82
2023/10/23 03:49:07;;;;;;;;;;;;;;;15.72;73.69;99798.66;6213545;23;19915;-81
2023/10/23 03:51:33;;;;;;;;;;;;;;;15.73;73.31;99787.97;6213349;23;19943;-81
2023/10/23 03:53:58;;;;;;;;;;;;;;;15.69;73.43;99786.38;6212432;23;20248;-81
2023/10/23 03:56:24;;;;;;;;;;;;;;;15.72;73.09;99788.91;6213378;23;20343;-82
2023/10/23 03:58:49;;;;;;;;;;;;;;;15.71;73.18;99781.84;6213516;23;19908;-83
2023/10/23 04:01:14;;;;;;;;;;;;;;;15.68;72.75;99786.41;6186973;23;19962;-82
2023/10/23 04:03:40;;;;;;;;;;;;;;;15.59;73.16;99787.59;6213252;23;20229;-83
2023/10/23 04:06:05;;;;;;;;;;;;;;;15.63;72.97;99791.91;6213499;23;19923;-83
2023/10/23 04:08:31;;;;;;;;;;;;;;;15.60;72.93;99783.13;6213661;23;19912;-84
2023/10/23 04:10:56;;;;;;;;;;;;;;;15.62;73.20;99778.66;6186950;23;19915;-82
2023/10/23 04:13:21;;;;;;;;;;;;;;;15.48;73.34;99787.09;6213619;23;20335;-84
2023/10/23 04:15:57;;;;;;;;;;;;;;;15.16;75.68;99789.88;6210840;23;19930;-84
2023/10/23 04:18:24;;;;;;;;;;;;;;;15.00;76.78;99794.81;6212488;23;19934;-83
2023/10/23 04:20:49;;;;;;;;;;;;;;;15.16;76.78;99791.66;6212096;23;20603;-83
2023/10/23 04:23:15;;;;;;;;;;;;;;;15.27;76.66;99793.97;6183685;23;19998;-83
2023/10/23 04:25:40;;;;;;;;;;;;;;;15.35;76.18;99782.19;6212774;23;19950;-82
2023/10/23 04:28:05;;;;;;;;;;;;;;;15.36;76.47;99788.38;6211376;23;19911;-83
2023/10/23 04:30:30;;;;;;;;;;;;;;;15.34;76.29;99798.19;6212183;23;19915;-82
2023/10/23 04:32:56;;;;;;;;;;;;;;;15.42;75.72;99798.78;6212574;23;19915;-83
2023/10/23 04:35:21;;;;;;;;;;;;;;;15.35;75.09;99806.09;6212221;23;19907;-82
2023/10/23 04:37:46;;;;;;;;;;;;;;;15.28;75.08;99804.56;6211948;23;20323;-83
2023/10/23 04:40:12;;;;;;;;;;;;;;;15.16;75.19;99802.31;6213194;23;19919;-83
2023/10/23 04:42:37;;;;;;;;;;;;;;;15.20;74.55;99801.28;6213098;23;19914;-83
2023/10/23 04:45:03;;;;;;;;;;;;;;;15.32;73.77;99808.88;6213798;23;20331;-81
2023/10/23 04:47:28;;;;;;;;;;;;;;;15.19;74.37;99803.06;6212827;23;19915;-82
2023/10/23 04:49:53;;;;;;;;;;;;;;;15.12;74.64;99812.16;6212696;23;19958;-81
2023/10/23 04:52:18;;;;;;;;;;;;;;;15.09;74.58;99811.38;6211865;23;19919;-83
2023/10/23 04:54:44;;;;;;;;;;;;;;;15.08;74.52;99815.81;6211416;23;19946;-82
2023/10/23 04:57:09;;;;;;;;;;;;;;;15.15;74.08;99809.41;6211328;23;19907;-81
2023/10/23 04:59:35;;;;;;;;;;;;;;;15.13;74.00;99821.00;6211966;23;19919;-81
2023/10/23 05:02:00;;;;;;;;;;;;;;;15.01;74.02;99828.44;6212763;23;19959;-81
2023/10/23 05:04:28;;;;;;;;;;;;;;;14.96;74.44;99842.78;6210849;23;19908;-81
2023/10/23 05:06:55;;;;;;;;;;;;;;;14.99;74.36;99832.06;6212532;23;19912;-80
2023/10/23 05:09:20;;;;;;;;;;;;;;;15.02;73.72;99822.19;6211620;23;19914;-86
2023/10/23 05:11:46;;;;;;;;;;;;;;;15.00;74.82;99839.97;6212586;23;19982;-81
2023/10/23 05:14:12;;;;;;;;;;;;;;;15.00;74.82;99833.81;6211957;23;19938;-81
2023/10/23 05:16:37;;;;;;;;;;;;;;;15.09;74.24;99840.59;6212542;23;19982;-81
2023/10/23 05:19:02;;;;;;;;;;;;;;;15.03;75.21;99850.50;6212584;23;19939;-80
2023/10/23 05:21:28;;;;;;;;;;;;;;;15.04;75.54;99840.75;6212646;23;19915;-81
2023/10/23 05:23:53;;;;;;;;;;;;;;;15.17;75.20;99851.88;6185110;23;19916;-81
2023/10/23 05:26:18;;;;;;;;;;;;;;;15.30;75.12;99860.31;6209922;23;20367;-82
2023/10/23 05:28:44;;;;;;;;;;;;;;;15.44;75.35;99863.41;6181443;23;19907;-82
2023/10/23 05:31:09;;;;;;;;;;;;;;;15.53;74.96;99860.44;6209618;23;19908;-79
2023/10/23 05:33:35;;;;;;;;;;;;;;;15.67;75.09;99869.75;6211808;23;20345;-81
2023/10/23 05:36:01;;;;;;;;;;;;;;;15.80;74.89;99870.25;6212399;23;19908;-82
2023/10/23 05:38:26;;;;;;;;;;;;;;;15.72;75.28;99870.47;6210730;23;19908;-83
2023/10/23 05:40:56;;;;;;;;;;;;;;;15.84;75.07;99875.41;6212394;23;19934;-84
2023/10/23 05:43:21;;;;;;;;;;;;;;;16.01;75.24;99871.31;6213750;23;19908;-83
2023/10/23 05:45:46;;;;;;;;;;;;;;;16.12;74.85;99869.13;6213111;23;19907;-83
2023/10/23 05:48:12;;;;;;;;;;;;;;;16.34;73.98;99873.69;6185142;23;19912;-82
2023/10/23 05:50:37;;;;;;;;;;;;;;;16.33;73.49;99874.59;6210718;23;20426;-83
2023/10/23 05:53:02;;;;;;;;;;;;;;;16.45;73.51;99877.72;6184947;23;19908;-82
2023/10/23 05:55:27;;;;;;;;;;;;;;;16.47;73.25;99883.00;6214499;23;19908;-84
2023/10/23 05:57:57;;;;;;;;;;;;;;;16.42;73.34;99882.25;6213674;23;19908;-86
2023/10/23 06:00:22;;;;;;;;;;;;;;;16.50;73.37;99877.56;6214154;23;19991;-83
2023/10/23 06:02:48;;;;;;;;;;;;;;;16.55;72.91;99878.25;6213751;23;19932;-84
2023/10/23 06:05:13;;;;;;;;;;;;;;;16.58;72.71;99883.47;6187213;23;20618;-83
2023/10/23 06:07:38;;;;;;;;;;;;;;;16.75;72.58;99884.63;6213917;23;19912;-82
2023/10/23 06:10:04;;;;;;;;;;;;;;;16.76;73.05;99883.69;6213851;23;19947;-84
2023/10/23 06:12:29;;;;;;;;;;;;;;;16.91;73.14;99884.94;6187819;23;19908;-84
2023/10/23 06:14:54;;;;;;;;;;;;;;;17.02;73.91;99881.88;6213614;23;20389;-84
2023/10/23 06:17:20;;;;;;;;;;;;;;;17.23;73.04;99883.69;6214239;23;19915;-84
2023/10/23 06:19:45;;;;;;;;;;;;;;;17.51;72.53;99886.13;6213647;23;19935;-85
2023/10/23 06:22:11;;;;;;;;;;;;;;;17.81;71.76;99892.91;6213286;23;20350;-83
2023/10/23 06:24:36;;;;;;;;;;;;;;;17.80;71.33;99892.06;6212642;23;20272;-84
2023/10/23 06:27:02;;;;;;;;;;;;;;;18.01;70.48;99893.00;6213457;23;19911;-84
2023/10/23 06:29:27;;;;;;;;;;;;;;;18.13;69.41;99896.94;6212814;23;19914;-83
2023/10/23 06:31:54;;;;;;;;;;;;;;;18.28;67.84;99889.22;6212414;23;20324;-81
2023/10/23 06:34:19;;;;;;;;;;;;;;;18.51;67.64;99896.22;6211581;23;19939;-83
2023/10/23 06:36:45;;;;;;;;;;;;;;;18.54;67.17;99893.41;6213593;23;19942;-83
2023/10/23 06:39:12;;;;;;;;;;;;;;;18.75;65.96;99902.22;6212979;23;19911;-83
2023/10/23 06:41:37;;;;;;;;;;;;;;;18.79;65.89;99895.81;6213154;23;20324;-84
2023/10/23 06:44:03;;;;;;;;;;;;;;;19.14;65.52;99896.88;6213607;23;19908;-84
2023/10/23 06:46:28;;;;;;;;;;;;;;;19.25;64.68;99898.19;6214164;23;19908;-84
2023/10/23 06:48:54;;;;;;;;;;;;;;;19.44;63.83;99896.34;6214701;23;19915;-83
2023/10/23 06:51:19;;;;;;;;;;;;;;;19.41;63.19;99890.28;6213991;23;19908;-83
2023/10/23 06:53:44;;;;;;;;;;;;;;;19.43;63.71;99891.97;6187195;23;20259;-83
2023/10/23 06:56:10;;;;;;;;;;;;;;;19.66;62.23;99892.63;6213447;23;19911;-84
2023/10/23 06:58:35;;;;;;;;;;;;;;;19.82;62.83;99888.28;6214100;23;19919;-82
2023/10/23 07:01:07;;;;;;;;;;;;;;;20.28;61.14;99884.19;6214322;23;19983;-83
2023/10/23 07:03:33;;;;;;;;;;;;;;;20.62;59.47;99885.97;6214300;23;19907;-82
2023/10/23 07:05:58;;;;;;;;;;;;;;;20.67;58.61;99883.06;6212704;23;19961;-82
2023/10/23 07:08:24;;;;;;;;;;;;;;;20.64;58.64;99873.34;6213788;23;19908;-82
2023/10/23 07:10:49;;;;;;;;;;;;;;;20.97;57.63;99874.28;6214081;23;19908;-82
2023/10/23 07:13:15;;;;;;;;;;;;;;;21.06;57.51;99868.41;6214162;23;19915;-82
2023/10/23 07:15:40;;;;;;;;;;;;;;;21.23;56.00;99867.47;6214544;23;19919;-82
2023/10/23 07:18:05;;;;;;;;;;;;;;;20.77;56.66;99864.66;6214762;23;19934;-82
2023/10/23 07:20:31;;;;;;;;;;;;;;;20.69;57.72;99862.41;6214484;23;20294;-84
2023/10/23 07:22:56;;;;;;;;;;;;;;;20.68;57.24;99866.00;6214074;23;19938;-82
2023/10/23 07:25:21;;;;;;;;;;;;;;;20.69;56.90;99859.72;6213788;23;20229;-83
2023/10/23 07:27:47;;;;;;;;;;;;;;;20.95;57.41;99858.28;6214220;23;19914;-82
2023/10/23 07:30:13;;;;;;;;;;;;;;;21.09;57.53;99852.16;6213992;23;20286;-82
2023/10/23 07:32:39;;;;;;;;;;;;;;;21.23;56.93;99852.22;6214133;23;20017;-82
2023/10/23 07:35:04;;;;;;;;;;;;;;;21.40;56.50;99847.72;6213713;23;19943;-83
2023/10/23 07:37:30;;;;;;;;;;;;;;;21.42;55.06;99843.97;6213543;23;19954;-82
2023/10/23 07:39:56;;;;;;;;;;;;;;;21.80;55.06;99848.13;6213541;23;19958;-82
2023/10/23 07:42:21;;;;;;;;;;;;;;;22.06;54.73;99846.56;6213550;23;19908;-82
2023/10/23 07:44:46;;;;;;;;;;;;;;;22.06;54.73;99843.88;6213924;23;19939;-84
2023/10/23 07:47:12;;;;;;;;;;;;;;;22.33;53.58;99852.09;6213707;23;19915;-82
2023/10/23 07:49:37;;;;;;;;;;;;;;;22.58;52.26;99844.34;6213806;23;19908;-83
2023/10/23 07:52:03;;;;;;;;;;;;;;;22.58;52.23;99842.50;6213233;23;19914;-82
2023/10/23 07:54:31;;;;;;;;;;;;;;;22.62;52.45;99853.94;6213717;23;19907;-83
2023/10/23 07:56:56;;;;;;;;;;;;;;;22.60;52.12;99845.97;6213541;23;20019;-83
2023/10/23 07:59:23;;;;;;;;;;;;;;;22.42;52.42;99847.97;6213610;23;20363;-83
2023/10/23 08:01:49;;;;;;;;;;;;;;;22.35;52.85;99858.25;6213883;23;19908;-82
2023/10/23 08:04:14;;;;;;;;;;;;;;;22.26;54.06;99852.53;6213097;23;19915;-83
2023/10/23 08:06:39;;;;;;;;;;;;;;;22.34;53.43;99848.44;6213669;23;19919;-83
2023/10/23 08:09:06;;;;;;;;;;;;;;;22.49;52.89;99851.13;6212989;23;19912;-83
2023/10/23 08:11:31;;;;;;;;;;;;;;;22.91;51.53;99854.78;6213589;23;20297;-83
2023/10/23 08:13:58;;;;;;;;;;;;;;;23.30;50.23;99849.66;6212769;23;19943;-83
2023/10/23 08:16:23;;;;;;;;;;;;;;;23.42;49.98;99836.25;6213681;23;19908;-84
2023/10/23 08:18:48;;;;;;;;;;;;;;;;;;6213639;23;19908;-83
2023/10/23 08:21:15;;;;;;;;;;;;;;;23.67;50.56;99840.00;6213354;23;19915;-83
2023/10/23 08:23:41;;;;;;;;;;;;;;;23.54;51.88;99836.38;6213379;23;19943;-83
2023/10/23 08:26:06;;;;;;;;;;;;;;;23.74;49.95;99841.31;6213846;23;19918;-83
2023/10/23 08:28:32;;;;;;;;;;;;;;;23.92;47.75;99836.53;6213250;23;19907;-81
2023/10/23 08:30:57;;;;;;;;;;;;;;;23.91;47.42;99842.91;6212896;23;20255;-83
2023/10/23 08:33:22;;;;;;;;;;;;;;;23.94;47.96;99842.69;6213620;23;19907;-85
2023/10/23 08:35:48;;;;;;;;;;;;;;;24.21;49.14;99836.34;6211323;23;19919;-85
2023/10/23 08:38:13;;;;;;;;;;;;;;;24.54;46.15;99839.47;6211600;23;19920;-80
2023/10/23 08:40:39;;;;;;;;;;;;;;;24.44;45.82;99831.19;6212392;23;19908;-83
2023/10/23 08:43:05;;;;;;;;;;;;;;;24.55;45.43;99830.44;6211891;23;19915;-83
2023/10/23 08:45:30;;;;;;;;;;;;;;;24.86;45.67;99829.13;6185044;23;19908;-82
2023/10/23 08:47:57;;;;;;;;;;;;;;;24.81;45.45;99826.75;6212454;23;19938;-84
2023/10/23 08:50:23;;;;;;;;;;;;;;;24.61;45.34;99830.03;6184960;23;19908;-85
2023/10/23 08:52:49;;;;;;;;;;;;;;;24.57;46.91;99823.97;6212171;23;19939;-83
2023/10/23 08:55:15;;;;;;;;;;;;;;;24.64;46.52;99825.28;6211441;23;19938;-88
2023/10/23 08:57:50;;;;;;;;;;;;;;;24.62;46.00;99820.94;6212586;23;20341;-82
2023/10/23 09:00:16;;;;;;;;;;;;;;;24.58;45.64;99822.16;6211464;23;19934;-85
2023/10/23 09:02:41;;;;;;;;;;;;;;;24.62;45.36;99823.63;6185718;23;20335;-82
2023/10/23 09:05:06;;;;;;;;;;;;;;;24.47;45.27;99815.66;6211893;23;19946;-82
2023/10/23 09:07:32;;;;;;;;;;;;;;;24.64;45.79;99813.63;6211668;23;19908;-81
2023/10/23 09:10:01;;;;;;;;;;;;;;;24.78;45.56;99818.88;6211332;23;20328;-83
2023/10/23 09:12:30;;;;;;;;;;;;;;;24.77;45.19;99809.06;6211866;23;19919;-84
2023/10/23 09:14:56;;;;;;;;;;;;;;;24.76;45.68;99807.34;6211556;23;19912;-84
2023/10/23 09:17:23;;;;;;;;;;;;;;;24.79;44.69;99796.34;6211938;23;20002;-84
2023/10/23 09:19:48;;;;;;;;;;;;;;;24.94;44.51;99798.88;6212539;23;19904;-84
2023/10/23 09:22:14;;;;;;;;;;;;;;;25.15;44.66;99791.91;6211588;23;19915;-82
2023/10/23 09:24:39;;;;;;;;;;;;;;;24.97;43.64;99794.09;6211265;23;19907;-81
2023/10/23 09:27:05;;;;;;;;;;;;;;;25.22;43.77;99786.03;6209447;23;20254;-84
2023/10/23 09:29:30;;;;;;;;;;;;;;;25.44;43.42;99780.78;6211799;23;19912;-84
2023/10/23 09:31:59;;;;;;;;;;;;;;;25.64;41.95;99775.69;6208606;23;19977;-82
2023/10/23 09:34:25;;;;;;;;;;;;;;;25.70;42.25;99768.00;6209313;23;20251;-84
2023/10/23 09:36:51;;;;;;;;;;;;;;;25.78;42.16;99763.81;6211495;23;19908;-82
2023/10/23 09:39:23;;;;;;;;;;;;;;;25.77;41.66;99768.38;6210841;23;19961;-82
2023/10/23 09:41:48;;;;;;;;;;;;;;;25.73;41.20;99764.19;6210091;23;20425;-83
2023/10/23 09:44:14;;;;;;;;;;;;;;;25.67;41.14;99765.53;6210291;23;19908;-82
2023/10/23 09:46:42;;;;;;;;;;;;;;;25.89;41.79;99753.06;6210871;23;20236;-86
2023/10/23 09:49:08;;;;;;;;;;;;;;;25.91;40.31;99753.78;6210755;23;20665;-81
2023/10/23 09:51:37;;;;;;;;;;;;;;;25.82;40.85;99758.06;6210033;23;19923;-81
2023/10/23 09:54:06;;;;;;;;;;;;;;;25.99;41.33;99754.06;6183542;23;20339;-82
2023/10/23 09:56:31;;;;;;;;;;;;;;;25.96;39.56;99756.13;6209938;23;19949;-82
2023/10/23 09:59:00;;;;;;;;;;;;;;;26.11;39.53;99757.66;6209322;23;19907;-83
2023/10/23 10:01:36;;;;;;;;;;;;;;;26.30;39.44;99750.81;6211027;23;19912;-82
2023/10/23 10:04:08;;;;;;;;;;;;;;;26.38;38.93;99748.34;6210130;23;19918;-82
2023/10/23 10:06:34;;;;;;;;;;;;;;;26.41;39.06;99743.53;6209793;23;19915;-83
2023/10/23 10:09:01;;;;;;;;;;;;;;;26.37;39.47;99739.38;6183054;23;19943;-83
2023/10/23 10:11:27;;;;;;;;;;;;;;;26.54;39.29;99742.53;6211144;23;19995;-82
2023/10/23 10:13:53;;;;;;;;;;;;;;;26.69;39.05;99730.50;6210675;23;19983;-84
2023/10/23 10:16:18;;;;;;;;;;;;;;;26.73;38.96;99726.56;6210607;23;19908;-81
2023/10/23 10:18:44;;;;;;;;;;;;;;;26.55;38.73;99693.72;6211356;23;19961;-83
2023/10/23 10:21:11;;;;;;;;;;;;;;;26.91;38.56;99729.63;6209966;23;19978;-83
2023/10/23 10:23:37;;;;;;;;;;;;;;;26.80;38.28;99730.50;6208484;23;20356;-82
2023/10/23 10:26:03;;;;;;;;;;;;;;;26.61;39.22;99728.38;6183734;23;19923;-82
2023/10/23 10:28:28;;;;;;;;;;;;;;;26.65;37.97;99720.03;6211420;23;19908;-82
2023/10/23 10:30:54;;;;;;;;;;;;;;;26.54;38.52;99721.78;6212512;23;20362;-85
2023/10/23 10:33:23;;;;;;;;;;;;;;;26.65;38.09;99714.63;6212050;23;19914;-79
2023/10/23 10:35:56;;;;;;;;;;;;;;;26.71;38.73;99715.03;6212148;23;19907;-81
2023/10/23 10:38:22;;;;;;;;;;;;;;;26.81;38.18;99715.13;6213582;23;19912;-81
2023/10/23 10:40:55;;;;;;;;;;;;;;;26.93;37.57;99707.84;6213386;23;19912;-82
2023/10/23 10:43:22;;;;;;;;;;;;;;;27.09;37.71;99702.00;6213828;23;20228;-82
2023/10/23 10:45:47;;;;;;;;;;;;;;;27.10;38.21;99701.00;6213255;23;19908;-82
2023/10/23 10:48:15;;;;;;;;;;;;;;;27.07;37.30;99696.72;6210309;23;19911;-82
2023/10/23 10:50:41;;;;;;;;;;;;;;;27.05;37.11;99695.09;6213480;23;19915;-82
2023/10/23 10:53:06;;;;;;;;;;;;;;;27.21;36.95;99687.41;6211546;23;19907;-82
2023/10/23 10:55:32;;;;;;;;;;;;;;;27.14;36.99;99676.25;6185396;23;19912;-83
2023/10/23 10:57:58;;;;;;;;;;;;;;;27.20;36.35;99677.56;6210294;23;19904;-82
2023/10/23 11:00:24;;;;;;;;;;;;;;;27.22;36.85;99678.31;6212730;23;19908;-82
2023/10/23 11:02:49;;;;;;;;;;;;;;;27.38;36.61;99677.03;6213022;23;19908;-82
2023/10/23 11:05:14;;;;;;;;;;;;;;;27.41;36.22;99674.06;6213075;23;20346;-82
2023/10/23 11:07:40;;;;;;;;;;;;;;;27.33;36.36;99667.44;6212760;23;19907;-82
2023/10/23 11:10:06;;;;;;;;;;;;;;;27.36;36.03;99660.94;6211906;23;19912;-81
2023/10/23 11:12:31;;;;;;;;;;;;;;;27.25;35.83;99664.50;6211887;23;19908;-82
2023/10/23 11:14:57;;;;;;;;;;;;;;;27.37;35.84;99665.31;6212496;23;19915;-82
2023/10/23 11:17:22;;;;;;;;;;;;;;;27.44;35.77;99665.69;6186060;23;20327;-80
2023/10/23 11:19:48;;;;;;;;;;;;;;;27.53;35.33;99659.47;6212145;23;19908;-80
2023/10/23 11:22:14;;;;;;;;;;;;;;;27.48;35.81;99661.69;6212146;23;20578;-81
2023/10/23 11:24:40;;;;;;;;;;;;;;;27.58;35.18;99656.38;6210980;23;19935;-82
2023/10/23 11:27:05;;;;;;;;;;;;;;;27.61;35.66;99648.81;6210726;23;20270;-82
2023/10/23 11:29:40;;;;;;;;;;;;;;;27.61;35.36;99646.09;6212553;23;19907;-81
2023/10/23 11:32:10;;;;;;;;;;;;;;;27.52;35.55;99649.63;6212326;23;19912;-82
2023/10/23 11:34:36;;;;;;;;;;;;;;;27.39;35.31;99641.69;6212045;23;19969;-82
2023/10/23 11:37:02;;;;;;;;;;;;;;;27.58;35.16;99640.09;6212662;23;20342;-83
2023/10/23 11:39:30;;;;;;;;;;;;;;;27.78;34.50;99644.63;6211754;23;20203;-82
2023/10/23 11:41:56;;;;;;;;;;;;;;;27.73;34.98;99651.44;6212200;23;19912;-82
2023/10/23 11:44:22;;;;;;;;;;;;;;;27.63;34.99;99644.13;6212506;23;20303;-83
2023/10/23 11:46:48;;;;;;;;;;;;;;;27.83;34.64;99638.81;6212959;23;19947;-81
2023/10/23 11:49:14;;;;;;;;;;;;;;;27.80;34.79;99639.94;6211701;23;19934;-82
2023/10/23 11:51:39;;;;;;;;;;;;;;;27.84;34.17;99635.13;6212673;23;19908;-82
2023/10/23 11:54:05;;;;;;;;;;;;;;;27.90;34.40;99628.28;6211672;23;19912;-82
2023/10/23 11:56:32;;;;;;;;;;;;;;;28.08;34.24;99637.50;6211779;23;19911;-82
2023/10/23 11:58:57;;;;;;;;;;;;;;;28.07;34.76;99621.38;6211236;23;19908;-83
2023/10/23 12:01:23;;;;;;;;;;;;;;;27.88;34.95;99625.69;6212305;23;19991;-85
2023/10/23 12:03:48;;;;;;;;;;;;;;;28.04;34.21;99622.53;6212549;23;19910;-83
2023/10/23 12:06:14;;;;;;;;;;;;;;;28.12;33.64;99619.97;6211242;23;19986;-86
2023/10/23 12:08:39;;;;;;;;;;;;;;;27.95;33.86;99612.47;6212001;23;20347;-85
2023/10/23 12:11:04;;;;;;;;;;;;;;;28.07;33.56;99622.25;6210452;23;20011;-84
2023/10/23 12:13:30;;;;;;;;;;;;;;;27.95;33.25;99628.75;6212642;23;19987;-85
2023/10/23 12:15:56;;;;;;;;;;;;;;;27.96;33.63;99614.22;6186769;23;20387;-83
2023/10/23 12:18:23;;;;;;;;;;;;;;;27.94;33.96;99616.19;6214337;23;19943;-83
2023/10/23 12:20:49;;;;;;;;;;;;;;;28.12;33.99;99621.84;6212377;23;20438;-82
2023/10/23 12:23:14;;;;;;;;;;;;;;;28.23;34.09;99617.16;6211876;23;19951;-81
2023/10/23 12:25:39;;;;;;;;;;;;;;;28.36;33.71;99614.22;6212919;23;19918;-81
2023/10/23 12:28:05;;;;;;;;;;;;;;;28.44;33.01;99613.50;6186221;23;19919;-82
2023/10/23 12:30:30;;;;;;;;;;;;;;;28.56;33.16;99619.66;6210761;23;19912;-84
2023/10/23 12:32:56;;;;;;;;;;;;;;;28.23;33.55;99611.72;6212275;23;20232;-83
2023/10/23 12:35:21;;;;;;;;;;;;;;;28.27;32.94;99612.34;6215088;23;20350;-84
2023/10/23 12:37:47;;;;;;;;;;;;;;;28.32;32.90;99612.75;6214667;23;19935;-83
2023/10/23 12:40:13;;;;;;;;;;;;;;;28.36;33.10;99611.50;6211267;23;19911;-85